createdAt,value
2022-09-13T00:07:36.153Z,76.80
2022-09-13T00:17:38.233Z,76.30
2022-09-13T00:27:40.991Z,76.60
2022-09-13T00:37:42.913Z,77.50
2022-09-13T00:48:00.689Z,76.50
2022-09-13T00:58:10.672Z,78.10
2022-09-13T01:08:19.330Z,77.90
2022-09-13T01:18:21.830Z,75.30
2022-09-13T01:28:48.850Z,76.90
2022-09-13T01:39:08.052Z,77.80
2022-09-13T01:49:30.710Z,77.60
2022-09-13T01:59:59.912Z,75.70
2022-09-13T02:10:03.468Z,79.20
2022-09-13T02:20:22.728Z,82.70
2022-09-13T02:30:24.778Z,83.20
2022-09-13T02:40:36.472Z,80.30
2022-09-13T02:51:03.755Z,81.50
2022-09-13T03:01:06.171Z,86.00
2022-09-13T03:11:24.616Z,82.40
2022-09-13T03:21:49.596Z,83.80
2022-09-13T03:32:17.140Z,85.40
2022-09-13T03:42:46.274Z,87.30
2022-09-13T03:52:50.881Z,89.80
2022-09-13T04:02:53.936Z,91.50
2022-09-13T04:12:57.795Z,89.90
2022-09-13T04:23:00.857Z,90.40
2022-09-13T04:33:02.981Z,90.00
2022-09-13T04:43:05.519Z,95.50
2022-09-13T04:53:07.496Z,93.90
2022-09-13T05:03:09.299Z,94.50
2022-09-13T05:13:11.518Z,93.10
2022-09-13T05:23:13.357Z,94.50
2022-09-13T05:33:15.355Z,96.30
2022-09-13T05:43:17.641Z,99.60
2022-09-13T05:53:19.680Z,99.10
2022-09-13T06:03:21.877Z,99.90
2022-09-13T06:13:23.976Z,99.10
2022-09-13T06:23:25.838Z,95.70
2022-09-13T06:33:27.798Z,99.90
2022-09-13T06:43:29.560Z,97.20
2022-09-13T06:53:32.021Z,95.40
2022-09-13T07:03:33.783Z,95.40
2022-09-13T07:13:35.683Z,95.60
2022-09-13T07:23:40.674Z,93.10
2022-09-13T07:33:45.356Z,93.70
2022-09-13T07:43:47.562Z,86.30
2022-09-13T07:53:57.500Z,88.60
2022-09-13T08:04:01.985Z,85.40
2022-09-13T08:14:08.355Z,93.50
2022-09-13T08:24:18.677Z,95.30
2022-09-13T08:34:22.062Z,92.40
2022-09-13T08:44:56.480Z,89.20
2022-09-13T08:55:00.142Z,77.40
2022-09-13T09:05:14.357Z,68.50
2022-09-13T09:15:24.481Z,67.30
2022-09-13T09:25:28.758Z,75.30
2022-09-13T09:35:58.241Z,72.20
2022-09-13T09:46:02.067Z,66.20
2022-09-13T09:56:11.418Z,65.40
2022-09-13T10:06:27.481Z,56.80
2022-09-13T10:16:41.005Z,54.90
2022-09-13T10:26:46.082Z,48.10
2022-09-13T10:37:23.420Z,42.10
2022-09-13T10:47:42.757Z,42.90
2022-09-13T10:57:45.360Z,47.50
2022-09-13T11:08:10.539Z,50.30
2022-09-13T11:18:41.522Z,49.80
2022-09-13T11:29:21.197Z,47.50
2022-09-13T11:39:40.294Z,59.10
2022-09-13T11:49:57.480Z,67.30
2022-09-13T12:00:26.401Z,70.50
2022-09-13T12:10:29.639Z,70.10
2022-09-13T12:21:05.979Z,76.50
2022-09-13T12:31:21.832Z,70.60
2022-09-13T12:41:57.717Z,56.50
2022-09-13T12:52:32.642Z,50.60
2022-09-13T13:02:59.898Z,46.20
2022-09-13T13:13:29.377Z,46.80
2022-09-13T13:23:37.600Z,42.90
2022-09-13T13:34:18.017Z,45.40
2022-09-13T13:44:20.042Z,42.10
2022-09-13T13:54:59.615Z,46.80
2022-09-13T14:05:32.820Z,44.70
2022-09-13T14:15:59.118Z,46.00
2022-09-13T14:26:07.194Z,45.00
2022-09-13T14:36:23.378Z,52.40
2022-09-13T14:46:38.379Z,58.40
2022-09-13T14:56:51.362Z,48.80
2022-09-13T15:07:21.200Z,52.50
2022-09-13T15:17:26.119Z,64.60
2022-09-13T15:27:49.694Z,56.40
2022-09-13T15:38:17.897Z,59.80
2022-09-13T15:48:33.497Z,60.50
2022-09-13T15:58:36.838Z,65.70
2022-09-13T16:08:39.636Z,69.00
2022-09-13T16:18:42.079Z,75.30
2022-09-13T16:28:45.843Z,80.80
2022-09-13T16:38:47.817Z,73.60
2022-09-13T16:48:59.401Z,83.30
2022-09-13T16:59:01.399Z,88.10
2022-09-13T17:09:05.282Z,93.10
2022-09-13T17:19:16.274Z,92.40
2022-09-13T17:29:18.638Z,92.30
2022-09-13T17:39:20.797Z,95.60
2022-09-13T17:49:22.797Z,96.10
2022-09-13T17:59:25.159Z,96.70
2022-09-13T18:09:27.477Z,99.90
2022-09-13T18:19:45.846Z,99.90
2022-09-13T18:29:50.558Z,99.90
2022-09-13T18:39:52.744Z,99.90
2022-09-13T18:49:54.716Z,99.90
2022-09-13T18:59:56.534Z,99.90
2022-09-13T19:09:58.355Z,99.90
2022-09-13T19:20:00.995Z,99.90
2022-09-13T19:30:02.857Z,99.90
2022-09-13T19:40:06.019Z,99.90
2022-09-13T19:50:08.418Z,99.90
2022-09-13T20:00:11.836Z,99.90
2022-09-13T20:10:13.716Z,99.90
2022-09-13T20:20:15.757Z,99.90
2022-09-13T20:30:17.955Z,99.90
2022-09-13T20:40:20.410Z,99.90
2022-09-13T20:50:22.357Z,99.90
2022-09-13T21:00:23.852Z,99.90
2022-09-13T21:10:26.556Z,99.90
2022-09-13T21:20:28.633Z,99.90
2022-09-13T21:30:30.911Z,99.90
2022-09-13T21:40:33.084Z,99.90
2022-09-13T21:50:35.352Z,99.90
2022-09-13T22:00:41.757Z,99.90
2022-09-13T22:10:45.196Z,99.90
2022-09-13T22:20:47.795Z,99.90
2022-09-13T22:30:49.960Z,99.90
2022-09-13T22:40:59.134Z,99.90
2022-09-13T22:51:02.681Z,99.90
2022-09-13T23:01:16.626Z,99.90
2022-09-13T23:11:33.639Z,99.90
2022-09-13T23:21:38.135Z,99.90
2022-09-13T23:31:41.892Z,99.90
2022-09-13T23:41:44.456Z,97.50
2022-09-13T23:51:50.737Z,99.90
